sensor_id;sensor_type;location;lat;lon;timestamp;P1;durP1;ratioP1;P2;durP2;ratioP2
18082;SDS011;9168;51.194;6.840;2023-09-19T00:00:06;11.15;;;3.03;;
18082;SDS011;9168;51.194;6.840;2023-09-19T00:02:34;14.30;;;2.83;;
18082;SDS011;9168;51.194;6.840;2023-09-19T00:05:01;13.77;;;2.72;;
18082;SDS011;9168;51.194;6.840;2023-09-19T00:07:30;17.50;;;2.85;;
18082;SDS011;9168;51.194;6.840;2023-09-19T00:09:57;15.40;;;3.13;;
18082;SDS011;9168;51.194;6.840;2023-09-19T00:12:24;13.35;;;2.80;;
18082;SDS011;9168;51.194;6.840;2023-09-19T00:14:52;14.07;;;2.50;;
18082;SDS011;9168;51.194;6.840;2023-09-19T00:17:19;14.98;;;2.67;;
18082;SDS011;9168;51.194;6.840;2023-09-19T00:19:47;17.42;;;2.50;;
18082;SDS011;9168;51.194;6.840;2023-09-19T00:22:16;21.02;;;3.08;;
18082;SDS011;9168;51.194;6.840;2023-09-19T00:24:44;14.40;;;2.95;;
18082;SDS011;9168;51.194;6.840;2023-09-19T00:27:11;14.93;;;2.60;;
18082;SDS011;9168;51.194;6.840;2023-09-19T00:29:37;15.48;;;3.08;;
18082;SDS011;9168;51.194;6.840;2023-09-19T00:32:06;18.02;;;3.10;;
18082;SDS011;9168;51.194;6.840;2023-09-19T00:34:33;14.13;;;2.83;;
18082;SDS011;9168;51.194;6.840;2023-09-19T00:37:00;12.88;;;2.72;;
18082;SDS011;9168;51.194;6.840;2023-09-19T00:39:28;12.63;;;2.78;;
18082;SDS011;9168;51.194;6.840;2023-09-19T00:41:56;11.93;;;2.40;;
18082;SDS011;9168;51.194;6.840;2023-09-19T00:44:23;20.98;;;3.00;;
18082;SDS011;9168;51.194;6.840;2023-09-19T00:46:50;11.77;;;2.38;;
18082;SDS011;9168;51.194;6.840;2023-09-19T00:49:21;11.98;;;2.35;;
18082;SDS011;9168;51.194;6.840;2023-09-19T00:51:48;15.50;;;2.90;;
18082;SDS011;9168;51.194;6.840;2023-09-19T00:54:15;18.30;;;3.33;;
18082;SDS011;9168;51.194;6.840;2023-09-19T00:56:44;14.25;;;2.78;;
18082;SDS011;9168;51.194;6.840;2023-09-19T00:59:14;14.18;;;2.67;;
18082;SDS011;9168;51.194;6.840;2023-09-19T01:01:41;16.05;;;2.50;;
18082;SDS011;9168;51.194;6.840;2023-09-19T01:04:11;19.88;;;3.15;;
18082;SDS011;9168;51.194;6.840;2023-09-19T01:06:40;22.42;;;3.17;;
18082;SDS011;9168;51.194;6.840;2023-09-19T01:09:07;20.35;;;2.90;;
18082;SDS011;9168;51.194;6.840;2023-09-19T01:11:35;10.07;;;2.40;;
18082;SDS011;9168;51.194;6.840;2023-09-19T01:14:10;13.10;;;2.83;;
18082;SDS011;9168;51.194;6.840;2023-09-19T01:16:48;15.02;;;2.70;;
18082;SDS011;9168;51.194;6.840;2023-09-19T01:22:29;20.30;;;2.92;;
18082;SDS011;9168;51.194;6.840;2023-09-19T01:25:20;10.95;;;2.47;;
18082;SDS011;9168;51.194;6.840;2023-09-19T01:28:20;17.10;;;3.03;;
18082;SDS011;9168;51.194;6.840;2023-09-19T01:31:03;21.90;;;2.70;;
18082;SDS011;9168;51.194;6.840;2023-09-19T01:36:22;16.20;;;3.58;;
18082;SDS011;9168;51.194;6.840;2023-09-19T01:38:49;17.30;;;2.78;;
18082;SDS011;9168;51.194;6.840;2023-09-19T01:41:17;23.88;;;2.97;;
18082;SDS011;9168;51.194;6.840;2023-09-19T01:43:52;15.43;;;3.15;;
18082;SDS011;9168;51.194;6.840;2023-09-19T01:46:21;12.85;;;2.78;;
18082;SDS011;9168;51.194;6.840;2023-09-19T01:48:54;16.35;;;2.72;;
18082;SDS011;9168;51.194;6.840;2023-09-19T01:51:32;15.27;;;2.88;;
18082;SDS011;9168;51.194;6.840;2023-09-19T01:54:04;20.08;;;2.47;;
18082;SDS011;9168;51.194;6.840;2023-09-19T01:56:37;16.73;;;2.97;;
18082;SDS011;9168;51.194;6.840;2023-09-19T01:59:16;15.38;;;2.63;;
18082;SDS011;9168;51.194;6.840;2023-09-19T02:01:57;18.23;;;2.92;;
18082;SDS011;9168;51.194;6.840;2023-09-19T02:04:25;14.02;;;3.03;;
18082;SDS011;9168;51.194;6.840;2023-09-19T02:06:53;18.85;;;2.83;;
18082;SDS011;9168;51.194;6.840;2023-09-19T02:09:20;16.08;;;2.90;;
18082;SDS011;9168;51.194;6.840;2023-09-19T02:11:47;16.98;;;2.80;;
18082;SDS011;9168;51.194;6.840;2023-09-19T02:14:14;20.27;;;3.20;;
18082;SDS011;9168;51.194;6.840;2023-09-19T02:16:41;11.07;;;2.92;;
18082;SDS011;9168;51.194;6.840;2023-09-19T02:19:10;13.43;;;2.53;;
18082;SDS011;9168;51.194;6.840;2023-09-19T02:21:36;16.73;;;3.08;;
18082;SDS011;9168;51.194;6.840;2023-09-19T02:24:05;10.70;;;2.67;;
18082;SDS011;9168;51.194;6.840;2023-09-19T02:26:35;13.30;;;2.25;;
18082;SDS011;9168;51.194;6.840;2023-09-19T02:29:02;19.90;;;2.67;;
18082;SDS011;9168;51.194;6.840;2023-09-19T02:31:29;14.07;;;2.70;;
18082;SDS011;9168;51.194;6.840;2023-09-19T02:33:57;19.90;;;3.00;;
18082;SDS011;9168;51.194;6.840;2023-09-19T02:36:26;19.63;;;3.10;;
18082;SDS011;9168;51.194;6.840;2023-09-19T02:38:55;15.38;;;2.78;;
18082;SDS011;9168;51.194;6.840;2023-09-19T02:41:22;21.27;;;3.17;;
18082;SDS011;9168;51.194;6.840;2023-09-19T02:43:49;17.35;;;2.78;;
18082;SDS011;9168;51.194;6.840;2023-09-19T02:46:16;19.58;;;2.55;;
18082;SDS011;9168;51.194;6.840;2023-09-19T02:48:43;12.48;;;3.47;;
18082;SDS011;9168;51.194;6.840;2023-09-19T02:51:10;15.18;;;2.85;;
18082;SDS011;9168;51.194;6.840;2023-09-19T02:53:38;15.60;;;2.72;;
18082;SDS011;9168;51.194;6.840;2023-09-19T02:56:05;18.48;;;3.03;;
18082;SDS011;9168;51.194;6.840;2023-09-19T02:58:32;13.43;;;2.78;;
18082;SDS011;9168;51.194;6.840;2023-09-19T03:01:07;14.85;;;2.83;;
18082;SDS011;9168;51.194;6.840;2023-09-19T03:03:34;20.10;;;3.20;;
18082;SDS011;9168;51.194;6.840;2023-09-19T03:06:02;16.05;;;3.00;;
18082;SDS011;9168;51.194;6.840;2023-09-19T03:08:29;15.85;;;3.83;;
18082;SDS011;9168;51.194;6.840;2023-09-19T03:10:58;19.67;;;3.53;;
18082;SDS011;9168;51.194;6.840;2023-09-19T03:13:25;17.27;;;3.53;;
18082;SDS011;9168;51.194;6.840;2023-09-19T03:15:54;17.38;;;2.80;;
18082;SDS011;9168;51.194;6.840;2023-09-19T03:18:21;20.02;;;3.25;;
18082;SDS011;9168;51.194;6.840;2023-09-19T03:20:54;21.45;;;2.90;;
18082;SDS011;9168;51.194;6.840;2023-09-19T03:23:21;14.43;;;2.95;;
18082;SDS011;9168;51.194;6.840;2023-09-19T03:25:48;17.48;;;2.90;;
18082;SDS011;9168;51.194;6.840;2023-09-19T03:28:16;14.32;;;2.80;;
18082;SDS011;9168;51.194;6.840;2023-09-19T03:30:45;14.07;;;2.47;;
18082;SDS011;9168;51.194;6.840;2023-09-19T03:33:12;21.17;;;3.03;;
18082;SDS011;9168;51.194;6.840;2023-09-19T03:35:39;16.40;;;2.80;;
18082;SDS011;9168;51.194;6.840;2023-09-19T03:38:06;10.25;;;2.33;;
18082;SDS011;9168;51.194;6.840;2023-09-19T03:40:33;18.85;;;2.83;;
18082;SDS011;9168;51.194;6.840;2023-09-19T03:43:03;11.93;;;2.35;;
18082;SDS011;9168;51.194;6.840;2023-09-19T03:45:31;10.63;;;2.30;;
18082;SDS011;9168;51.194;6.840;2023-09-19T03:47:59;16.98;;;3.10;;
18082;SDS011;9168;51.194;6.840;2023-09-19T03:50:26;20.33;;;3.30;;
18082;SDS011;9168;51.194;6.840;2023-09-19T03:52:55;20.05;;;2.90;;
18082;SDS011;9168;51.194;6.840;2023-09-19T03:55:23;18.77;;;3.30;;
18082;SDS011;9168;51.194;6.840;2023-09-19T03:57:49;16.88;;;2.80;;
18082;SDS011;9168;51.194;6.840;2023-09-19T04:00:17;20.88;;;3.20;;
18082;SDS011;9168;51.194;6.840;2023-09-19T04:02:48;17.58;;;3.25;;
18082;SDS011;9168;51.194;6.840;2023-09-19T04:05:15;17.38;;;3.28;;
18082;SDS011;9168;51.194;6.840;2023-09-19T04:07:42;15.73;;;2.60;;
18082;SDS011;9168;51.194;6.840;2023-09-19T04:10:09;21.52;;;3.38;;
18082;SDS011;9168;51.194;6.840;2023-09-19T04:12:36;15.40;;;2.72;;
18082;SDS011;9168;51.194;6.840;2023-09-19T04:15:04;19.70;;;3.45;;
18082;SDS011;9168;51.194;6.840;2023-09-19T04:17:32;22.33;;;3.25;;
18082;SDS011;9168;51.194;6.840;2023-09-19T04:20:00;21.27;;;3.35;;
18082;SDS011;9168;51.194;6.840;2023-09-19T04:22:29;25.15;;;3.78;;
18082;SDS011;9168;51.194;6.840;2023-09-19T04:24:56;18.38;;;3.00;;
18082;SDS011;9168;51.194;6.840;2023-09-19T04:27:23;19.30;;;2.97;;
18082;SDS011;9168;51.194;6.840;2023-09-19T04:29:50;14.23;;;3.00;;
18082;SDS011;9168;51.194;6.840;2023-09-19T04:32:18;24.25;;;3.78;;
18082;SDS011;9168;51.194;6.840;2023-09-19T04:34:45;16.42;;;2.90;;
18082;SDS011;9168;51.194;6.840;2023-09-19T04:37:16;15.07;;;2.92;;
18082;SDS011;9168;51.194;6.840;2023-09-19T04:39:43;18.70;;;3.35;;
18082;SDS011;9168;51.194;6.840;2023-09-19T04:42:11;14.27;;;2.70;;
18082;SDS011;9168;51.194;6.840;2023-09-19T04:44:40;16.25;;;3.28;;
18082;SDS011;9168;51.194;6.840;2023-09-19T04:47:07;25.08;;;3.65;;
18082;SDS011;9168;51.194;6.840;2023-09-19T04:49:37;18.60;;;3.33;;
18082;SDS011;9168;51.194;6.840;2023-09-19T04:52:05;16.80;;;3.15;;
18082;SDS011;9168;51.194;6.840;2023-09-19T04:54:33;20.90;;;3.60;;
18082;SDS011;9168;51.194;6.840;2023-09-19T04:57:00;14.68;;;2.75;;
18082;SDS011;9168;51.194;6.840;2023-09-19T04:59:27;24.02;;;3.53;;
18082;SDS011;9168;51.194;6.840;2023-09-19T05:01:54;18.60;;;3.35;;
18082;SDS011;9168;51.194;6.840;2023-09-19T05:04:21;16.13;;;2.97;;
18082;SDS011;9168;51.194;6.840;2023-09-19T05:06:48;22.48;;;3.28;;
18082;SDS011;9168;51.194;6.840;2023-09-19T05:09:16;17.85;;;3.38;;
18082;SDS011;9168;51.194;6.840;2023-09-19T05:11:46;18.92;;;3.00;;
18082;SDS011;9168;51.194;6.840;2023-09-19T05:14:14;26.17;;;3.30;;
18082;SDS011;9168;51.194;6.840;2023-09-19T05:16:41;18.65;;;3.97;;
18082;SDS011;9168;51.194;6.840;2023-09-19T05:19:08;22.30;;;3.42;;
18082;SDS011;9168;51.194;6.840;2023-09-19T05:21:37;16.65;;;3.40;;
18082;SDS011;9168;51.194;6.840;2023-09-19T05:24:04;21.25;;;3.53;;
18082;SDS011;9168;51.194;6.840;2023-09-19T05:26:31;19.08;;;3.38;;
18082;SDS011;9168;51.194;6.840;2023-09-19T05:29:00;15.90;;;3.00;;
18082;SDS011;9168;51.194;6.840;2023-09-19T05:31:30;13.55;;;3.22;;
18082;SDS011;9168;51.194;6.840;2023-09-19T05:33:57;21.27;;;3.58;;
18082;SDS011;9168;51.194;6.840;2023-09-19T05:36:26;18.80;;;3.22;;
18082;SDS011;9168;51.194;6.840;2023-09-19T05:38:54;15.70;;;3.20;;
18082;SDS011;9168;51.194;6.840;2023-09-19T05:41:21;17.17;;;3.75;;
18082;SDS011;9168;51.194;6.840;2023-09-19T05:43:48;21.40;;;3.05;;
18082;SDS011;9168;51.194;6.840;2023-09-19T05:46:17;23.98;;;3.67;;
18082;SDS011;9168;51.194;6.840;2023-09-19T05:48:44;16.67;;;3.47;;
18082;SDS011;9168;51.194;6.840;2023-09-19T05:51:12;17.52;;;2.72;;
18082;SDS011;9168;51.194;6.840;2023-09-19T05:53:39;25.77;;;3.80;;
18082;SDS011;9168;51.194;6.840;2023-09-19T05:56:08;19.42;;;3.03;;
18082;SDS011;9168;51.194;6.840;2023-09-19T05:58:36;21.60;;;3.13;;
18082;SDS011;9168;51.194;6.840;2023-09-19T06:01:03;20.40;;;3.55;;
18082;SDS011;9168;51.194;6.840;2023-09-19T06:03:33;14.10;;;3.03;;
18082;SDS011;9168;51.194;6.840;2023-09-19T06:06:00;18.30;;;3.00;;
18082;SDS011;9168;51.194;6.840;2023-09-19T06:08:27;19.95;;;3.10;;
18082;SDS011;9168;51.194;6.840;2023-09-19T06:10:56;22.20;;;3.53;;
18082;SDS011;9168;51.194;6.840;2023-09-19T06:13:23;15.80;;;3.70;;
18082;SDS011;9168;51.194;6.840;2023-09-19T06:15:51;20.77;;;3.25;;
18082;SDS011;9168;51.194;6.840;2023-09-19T06:18:19;21.13;;;3.30;;
18082;SDS011;9168;51.194;6.840;2023-09-19T06:20:47;18.35;;;3.05;;
18082;SDS011;9168;51.194;6.840;2023-09-19T06:23:16;18.63;;;3.22;;
18082;SDS011;9168;51.194;6.840;2023-09-19T06:25:45;25.38;;;3.47;;
18082;SDS011;9168;51.194;6.840;2023-09-19T06:28:11;23.80;;;3.80;;
18082;SDS011;9168;51.194;6.840;2023-09-19T06:30:39;22.00;;;3.80;;
18082;SDS011;9168;51.194;6.840;2023-09-19T06:33:07;21.58;;;3.15;;
18082;SDS011;9168;51.194;6.840;2023-09-19T06:35:36;20.80;;;3.08;;
18082;SDS011;9168;51.194;6.840;2023-09-19T06:38:04;18.05;;;3.25;;
18082;SDS011;9168;51.194;6.840;2023-09-19T06:40:33;20.95;;;3.85;;
18082;SDS011;9168;51.194;6.840;2023-09-19T06:43:00;28.13;;;4.35;;
18082;SDS011;9168;51.194;6.840;2023-09-19T06:45:28;22.23;;;3.33;;
18082;SDS011;9168;51.194;6.840;2023-09-19T06:47:57;21.00;;;2.83;;
18082;SDS011;9168;51.194;6.840;2023-09-19T06:50:25;18.83;;;3.50;;
18082;SDS011;9168;51.194;6.840;2023-09-19T06:52:53;26.63;;;3.42;;
18082;SDS011;9168;51.194;6.840;2023-09-19T06:55:23;18.30;;;3.50;;
18082;SDS011;9168;51.194;6.840;2023-09-19T06:57:53;23.60;;;3.45;;
18082;SDS011;9168;51.194;6.840;2023-09-19T07:00:20;18.15;;;3.28;;
18082;SDS011;9168;51.194;6.840;2023-09-19T07:02:54;18.30;;;3.60;;
18082;SDS011;9168;51.194;6.840;2023-09-19T07:05:22;18.10;;;2.90;;
18082;SDS011;9168;51.194;6.840;2023-09-19T07:07:49;19.90;;;3.15;;
18082;SDS011;9168;51.194;6.840;2023-09-19T07:10:17;24.70;;;3.17;;
18082;SDS011;9168;51.194;6.840;2023-09-19T07:12:46;18.75;;;3.28;;
18082;SDS011;9168;51.194;6.840;2023-09-19T07:15:13;28.92;;;3.40;;
18082;SDS011;9168;51.194;6.840;2023-09-19T07:17:40;26.77;;;3.45;;
18082;SDS011;9168;51.194;6.840;2023-09-19T07:20:07;16.20;;;3.03;;
18082;SDS011;9168;51.194;6.840;2023-09-19T07:22:35;22.40;;;3.50;;
18082;SDS011;9168;51.194;6.840;2023-09-19T07:25:04;25.20;;;3.47;;
18082;SDS011;9168;51.194;6.840;2023-09-19T07:27:32;19.00;;;3.47;;
18082;SDS011;9168;51.194;6.840;2023-09-19T07:30:00;23.42;;;3.60;;
18082;SDS011;9168;51.194;6.840;2023-09-19T07:32:27;22.77;;;3.05;;
18082;SDS011;9168;51.194;6.840;2023-09-19T07:34:54;16.95;;;3.40;;
18082;SDS011;9168;51.194;6.840;2023-09-19T07:37:21;22.67;;;3.17;;
18082;SDS011;9168;51.194;6.840;2023-09-19T07:39:50;18.83;;;3.53;;
18082;SDS011;9168;51.194;6.840;2023-09-19T07:42:17;17.75;;;3.45;;
18082;SDS011;9168;51.194;6.840;2023-09-19T07:44:44;25.45;;;3.85;;
18082;SDS011;9168;51.194;6.840;2023-09-19T07:47:16;23.60;;;4.10;;
18082;SDS011;9168;51.194;6.840;2023-09-19T07:49:43;15.18;;;3.20;;
18082;SDS011;9168;51.194;6.840;2023-09-19T07:52:13;16.98;;;3.28;;
18082;SDS011;9168;51.194;6.840;2023-09-19T07:54:40;17.45;;;3.55;;
18082;SDS011;9168;51.194;6.840;2023-09-19T07:57:09;18.52;;;3.10;;
18082;SDS011;9168;51.194;6.840;2023-09-19T07:59:37;16.88;;;3.10;;
18082;SDS011;9168;51.194;6.840;2023-09-19T08:02:07;18.73;;;3.25;;
18082;SDS011;9168;51.194;6.840;2023-09-19T08:04:36;20.05;;;3.40;;
18082;SDS011;9168;51.194;6.840;2023-09-19T08:07:03;20.80;;;3.88;;
18082;SDS011;9168;51.194;6.840;2023-09-19T08:09:30;17.10;;;3.55;;
18082;SDS011;9168;51.194;6.840;2023-09-19T08:11:59;19.55;;;3.63;;
18082;SDS011;9168;51.194;6.840;2023-09-19T08:14:29;18.40;;;3.22;;
18082;SDS011;9168;51.194;6.840;2023-09-19T08:16:56;18.80;;;2.83;;
18082;SDS011;9168;51.194;6.840;2023-09-19T08:19:24;20.15;;;3.55;;
18082;SDS011;9168;51.194;6.840;2023-09-19T08:21:56;19.33;;;3.20;;
18082;SDS011;9168;51.194;6.840;2023-09-19T08:24:24;20.42;;;3.40;;
18082;SDS011;9168;51.194;6.840;2023-09-19T08:26:52;29.13;;;3.72;;
18082;SDS011;9168;51.194;6.840;2023-09-19T08:29:20;22.27;;;3.58;;
18082;SDS011;9168;51.194;6.840;2023-09-19T08:31:52;16.55;;;2.95;;
18082;SDS011;9168;51.194;6.840;2023-09-19T08:34:20;16.50;;;3.35;;
18082;SDS011;9168;51.194;6.840;2023-09-19T08:36:48;17.92;;;3.17;;
18082;SDS011;9168;51.194;6.840;2023-09-19T08:39:19;18.75;;;3.03;;
18082;SDS011;9168;51.194;6.840;2023-09-19T08:41:45;17.70;;;2.67;;
18082;SDS011;9168;51.194;6.840;2023-09-19T08:44:12;18.80;;;3.45;;
18082;SDS011;9168;51.194;6.840;2023-09-19T08:46:40;19.00;;;3.28;;
18082;SDS011;9168;51.194;6.840;2023-09-19T08:49:12;15.07;;;2.80;;
18082;SDS011;9168;51.194;6.840;2023-09-19T08:51:47;14.45;;;2.83;;
18082;SDS011;9168;51.194;6.840;2023-09-19T08:54:25;15.32;;;2.95;;
18082;SDS011;9168;51.194;6.840;2023-09-19T08:56:54;18.27;;;2.92;;
18082;SDS011;9168;51.194;6.840;2023-09-19T08:59:24;22.13;;;3.90;;
18082;SDS011;9168;51.194;6.840;2023-09-19T09:01:53;16.20;;;3.65;;
18082;SDS011;9168;51.194;6.840;2023-09-19T09:04:22;17.27;;;3.03;;
18082;SDS011;9168;51.194;6.840;2023-09-19T09:06:51;17.83;;;2.85;;
18082;SDS011;9168;51.194;6.840;2023-09-19T09:09:20;24.77;;;3.90;;
18082;SDS011;9168;51.194;6.840;2023-09-19T09:11:49;19.50;;;3.20;;
18082;SDS011;9168;51.194;6.840;2023-09-19T09:14:18;15.60;;;3.55;;
18082;SDS011;9168;51.194;6.840;2023-09-19T09:16:47;20.20;;;2.90;;
18082;SDS011;9168;51.194;6.840;2023-09-19T09:19:14;15.70;;;3.28;;
18082;SDS011;9168;51.194;6.840;2023-09-19T09:21:49;18.90;;;3.42;;
18082;SDS011;9168;51.194;6.840;2023-09-19T09:24:28;15.48;;;2.88;;
18082;SDS011;9168;51.194;6.840;2023-09-19T09:27:00;13.43;;;3.03;;
18082;SDS011;9168;51.194;6.840;2023-09-19T09:29:43;16.88;;;2.95;;
18082;SDS011;9168;51.194;6.840;2023-09-19T09:32:23;15.45;;;2.95;;
18082;SDS011;9168;51.194;6.840;2023-09-19T09:34:59;15.38;;;2.97;;
18082;SDS011;9168;51.194;6.840;2023-09-19T09:37:29;20.52;;;3.50;;
18082;SDS011;9168;51.194;6.840;2023-09-19T09:39:58;23.77;;;3.13;;
18082;SDS011;9168;51.194;6.840;2023-09-19T09:42:45;16.90;;;2.95;;
18082;SDS011;9168;51.194;6.840;2023-09-19T09:45:16;11.48;;;3.00;;
18082;SDS011;9168;51.194;6.840;2023-09-19T09:47:53;13.75;;;3.08;;
18082;SDS011;9168;51.194;6.840;2023-09-19T09:50:24;21.90;;;3.83;;
18082;SDS011;9168;51.194;6.840;2023-09-19T09:52:54;15.40;;;3.00;;
18082;SDS011;9168;51.194;6.840;2023-09-19T09:55:28;11.93;;;2.90;;
18082;SDS011;9168;51.194;6.840;2023-09-19T10:00:54;15.73;;;3.17;;
18082;SDS011;9168;51.194;6.840;2023-09-19T10:03:33;15.18;;;3.35;;
18082;SDS011;9168;51.194;6.840;2023-09-19T10:06:04;18.23;;;3.28;;
18082;SDS011;9168;51.194;6.840;2023-09-19T10:09:02;15.82;;;2.92;;
18082;SDS011;9168;51.194;6.840;2023-09-19T10:11:36;18.67;;;3.60;;
18082;SDS011;9168;51.194;6.840;2023-09-19T10:14:09;15.13;;;2.67;;
18082;SDS011;9168;51.194;6.840;2023-09-19T10:16:39;16.52;;;3.00;;
18082;SDS011;9168;51.194;6.840;2023-09-19T10:19:11;18.27;;;3.10;;
18082;SDS011;9168;51.194;6.840;2023-09-19T10:21:42;16.80;;;3.15;;
18082;SDS011;9168;51.194;6.840;2023-09-19T10:24:11;15.90;;;3.20;;
18082;SDS011;9168;51.194;6.840;2023-09-19T10:26:41;12.90;;;2.97;;
18082;SDS011;9168;51.194;6.840;2023-09-19T10:29:11;20.48;;;3.08;;
18082;SDS011;9168;51.194;6.840;2023-09-19T10:31:41;17.83;;;3.15;;
18082;SDS011;9168;51.194;6.840;2023-09-19T10:34:12;14.10;;;3.53;;
18082;SDS011;9168;51.194;6.840;2023-09-19T10:36:42;15.50;;;2.90;;
18082;SDS011;9168;51.194;6.840;2023-09-19T10:39:12;10.55;;;2.60;;
18082;SDS011;9168;51.194;6.840;2023-09-19T10:41:45;15.27;;;2.90;;
18082;SDS011;9168;51.194;6.840;2023-09-19T10:44:21;14.60;;;2.90;;
18082;SDS011;9168;51.194;6.840;2023-09-19T10:46:50;16.38;;;3.33;;
18082;SDS011;9168;51.194;6.840;2023-09-19T10:49:19;17.70;;;2.78;;
18082;SDS011;9168;51.194;6.840;2023-09-19T10:51:46;14.90;;;2.65;;
18082;SDS011;9168;51.194;6.840;2023-09-19T10:54:16;11.80;;;2.80;;
18082;SDS011;9168;51.194;6.840;2023-09-19T10:56:46;14.15;;;3.47;;
18082;SDS011;9168;51.194;6.840;2023-09-19T10:59:16;15.38;;;2.97;;
18082;SDS011;9168;51.194;6.840;2023-09-19T11:01:46;17.73;;;2.55;;
18082;SDS011;9168;51.194;6.840;2023-09-19T11:04:22;16.38;;;3.05;;
18082;SDS011;9168;51.194;6.840;2023-09-19T11:07:00;11.18;;;3.33;;
18082;SDS011;9168;51.194;6.840;2023-09-19T11:09:45;13.77;;;3.75;;
18082;SDS011;9168;51.194;6.840;2023-09-19T11:18:54;11.75;;;3.50;;
18082;SDS011;9168;51.194;6.840;2023-09-19T11:24:27;14.07;;;3.25;;
18082;SDS011;9168;51.194;6.840;2023-09-19T11:27:08;13.00;;;3.45;;
18082;SDS011;9168;51.194;6.840;2023-09-19T11:29:42;11.77;;;3.25;;
18082;SDS011;9168;51.194;6.840;2023-09-19T11:32:09;12.50;;;3.28;;
18082;SDS011;9168;51.194;6.840;2023-09-19T11:34:42;10.25;;;3.15;;
18082;SDS011;9168;51.194;6.840;2023-09-19T11:40:33;10.57;;;3.05;;
18082;SDS011;9168;51.194;6.840;2023-09-19T11:43:00;12.40;;;2.97;;
18082;SDS011;9168;51.194;6.840;2023-09-19T11:46:01;10.15;;;3.00;;
18082;SDS011;9168;51.194;6.840;2023-09-19T11:48:40;14.63;;;3.20;;
18082;SDS011;9168;51.194;6.840;2023-09-19T11:51:11;9.95;;;3.00;;
18082;SDS011;9168;51.194;6.840;2023-09-19T11:53:45;12.82;;;2.97;;
18082;SDS011;9168;51.194;6.840;2023-09-19T11:56:15;17.38;;;3.22;;
18082;SDS011;9168;51.194;6.840;2023-09-19T11:58:43;9.88;;;2.85;;
18082;SDS011;9168;51.194;6.840;2023-09-19T12:01:12;14.00;;;3.40;;
18082;SDS011;9168;51.194;6.840;2023-09-19T12:03:46;15.02;;;3.28;;
18082;SDS011;9168;51.194;6.840;2023-09-19T12:06:16;8.13;;;2.75;;
18082;SDS011;9168;51.194;6.840;2023-09-19T12:08:43;11.30;;;3.63;;
18082;SDS011;9168;51.194;6.840;2023-09-19T12:11:12;9.85;;;3.05;;
18082;SDS011;9168;51.194;6.840;2023-09-19T12:13:41;15.57;;;3.20;;
18082;SDS011;9168;51.194;6.840;2023-09-19T12:16:14;13.77;;;3.40;;
18082;SDS011;9168;51.194;6.840;2023-09-19T12:18:43;9.48;;;3.08;;
18082;SDS011;9168;51.194;6.840;2023-09-19T12:21:25;8.77;;;3.08;;
18082;SDS011;9168;51.194;6.840;2023-09-19T12:26:42;8.80;;;3.30;;
18082;SDS011;9168;51.194;6.840;2023-09-19T12:29:14;15.50;;;3.78;;
18082;SDS011;9168;51.194;6.840;2023-09-19T12:31:47;13.00;;;3.25;;
18082;SDS011;9168;51.194;6.840;2023-09-19T12:34:16;10.32;;;2.92;;
18082;SDS011;9168;51.194;6.840;2023-09-19T12:36:46;13.40;;;3.33;;
18082;SDS011;9168;51.194;6.840;2023-09-19T12:39:22;11.10;;;3.22;;
18082;SDS011;9168;51.194;6.840;2023-09-19T12:41:51;8.30;;;2.80;;
18082;SDS011;9168;51.194;6.840;2023-09-19T12:44:19;15.43;;;3.42;;
18082;SDS011;9168;51.194;6.840;2023-09-19T12:46:49;9.68;;;2.95;;
18082;SDS011;9168;51.194;6.840;2023-09-19T12:49:17;9.27;;;2.80;;
18082;SDS011;9168;51.194;6.840;2023-09-19T12:51:47;10.52;;;2.95;;
18082;SDS011;9168;51.194;6.840;2023-09-19T12:54:14;9.52;;;2.92;;
18082;SDS011;9168;51.194;6.840;2023-09-19T12:56:42;10.63;;;3.10;;
18082;SDS011;9168;51.194;6.840;2023-09-19T12:59:12;8.50;;;2.80;;
18082;SDS011;9168;51.194;6.840;2023-09-19T13:01:39;8.90;;;2.80;;
18082;SDS011;9168;51.194;6.840;2023-09-19T13:04:14;12.13;;;3.25;;
18082;SDS011;9168;51.194;6.840;2023-09-19T13:06:44;8.73;;;2.80;;
18082;SDS011;9168;51.194;6.840;2023-09-19T13:09:14;8.55;;;2.60;;
18082;SDS011;9168;51.194;6.840;2023-09-19T13:11:41;12.35;;;2.90;;
18082;SDS011;9168;51.194;6.840;2023-09-19T13:14:14;11.07;;;3.13;;
18082;SDS011;9168;51.194;6.840;2023-09-19T13:16:55;7.40;;;2.35;;
18082;SDS011;9168;51.194;6.840;2023-09-19T13:19:39;7.15;;;2.50;;
18082;SDS011;9168;51.194;6.840;2023-09-19T13:25:07;7.97;;;2.35;;
18082;SDS011;9168;51.194;6.840;2023-09-19T13:27:38;8.93;;;2.47;;
18082;SDS011;9168;51.194;6.840;2023-09-19T13:30:06;7.88;;;2.40;;
18082;SDS011;9168;51.194;6.840;2023-09-19T13:32:34;7.03;;;2.38;;
18082;SDS011;9168;51.194;6.840;2023-09-19T13:35:02;11.70;;;2.33;;
18082;SDS011;9168;51.194;6.840;2023-09-19T13:37:33;7.13;;;2.25;;
18082;SDS011;9168;51.194;6.840;2023-09-19T13:40:02;8.20;;;2.35;;
18082;SDS011;9168;51.194;6.840;2023-09-19T13:42:30;8.38;;;2.47;;
18082;SDS011;9168;51.194;6.840;2023-09-19T13:44:57;7.00;;;2.33;;
18082;SDS011;9168;51.194;6.840;2023-09-19T13:47:24;9.32;;;2.40;;
18082;SDS011;9168;51.194;6.840;2023-09-19T13:49:52;7.43;;;2.15;;
18082;SDS011;9168;51.194;6.840;2023-09-19T13:52:19;11.63;;;2.45;;
18082;SDS011;9168;51.194;6.840;2023-09-19T13:54:47;9.07;;;1.98;;
18082;SDS011;9168;51.194;6.840;2023-09-19T13:57:16;7.55;;;2.00;;
18082;SDS011;9168;51.194;6.840;2023-09-19T13:59:43;10.63;;;2.28;;
18082;SDS011;9168;51.194;6.840;2023-09-19T14:02:10;5.65;;;2.00;;
18082;SDS011;9168;51.194;6.840;2023-09-19T14:04:39;9.93;;;1.90;;
18082;SDS011;9168;51.194;6.840;2023-09-19T14:07:06;6.95;;;2.22;;
18082;SDS011;9168;51.194;6.840;2023-09-19T14:09:33;6.40;;;2.00;;
18082;SDS011;9168;51.194;6.840;2023-09-19T14:12:00;10.15;;;2.10;;
18082;SDS011;9168;51.194;6.840;2023-09-19T14:14:28;8.50;;;2.08;;
18082;SDS011;9168;51.194;6.840;2023-09-19T14:16:55;4.57;;;1.95;;
18082;SDS011;9168;51.194;6.840;2023-09-19T14:19:25;8.82;;;2.00;;
18082;SDS011;9168;51.194;6.840;2023-09-19T14:21:52;7.45;;;1.90;;
18082;SDS011;9168;51.194;6.840;2023-09-19T14:24:20;8.57;;;1.92;;
18082;SDS011;9168;51.194;6.840;2023-09-19T14:26:47;8.18;;;2.25;;
18082;SDS011;9168;51.194;6.840;2023-09-19T14:29:15;12.57;;;1.92;;
18082;SDS011;9168;51.194;6.840;2023-09-19T14:31:44;7.03;;;1.92;;
18082;SDS011;9168;51.194;6.840;2023-09-19T14:34:10;11.25;;;2.22;;
18082;SDS011;9168;51.194;6.840;2023-09-19T14:36:38;9.63;;;2.05;;
18082;SDS011;9168;51.194;6.840;2023-09-19T14:39:05;9.05;;;2.03;;
18082;SDS011;9168;51.194;6.840;2023-09-19T14:41:33;14.98;;;2.33;;
18082;SDS011;9168;51.194;6.840;2023-09-19T14:44:01;8.38;;;1.80;;
18082;SDS011;9168;51.194;6.840;2023-09-19T14:46:29;8.63;;;1.77;;
18082;SDS011;9168;51.194;6.840;2023-09-19T14:48:57;5.82;;;1.90;;
18082;SDS011;9168;51.194;6.840;2023-09-19T14:51:25;10.77;;;1.98;;
18082;SDS011;9168;51.194;6.840;2023-09-19T14:53:52;11.05;;;1.80;;
18082;SDS011;9168;51.194;6.840;2023-09-19T14:56:19;8.32;;;1.90;;
18082;SDS011;9168;51.194;6.840;2023-09-19T14:58:47;9.30;;;2.03;;
18082;SDS011;9168;51.194;6.840;2023-09-19T15:01:14;6.70;;;1.70;;
18082;SDS011;9168;51.194;6.840;2023-09-19T15:03:41;7.57;;;1.77;;
18082;SDS011;9168;51.194;6.840;2023-09-19T15:06:10;6.43;;;1.73;;
18082;SDS011;9168;51.194;6.840;2023-09-19T15:08:39;8.73;;;1.92;;
18082;SDS011;9168;51.194;6.840;2023-09-19T15:11:10;8.25;;;2.10;;
18082;SDS011;9168;51.194;6.840;2023-09-19T15:13:38;6.18;;;1.85;;
18082;SDS011;9168;51.194;6.840;2023-09-19T15:16:05;4.82;;;1.38;;
18082;SDS011;9168;51.194;6.840;2023-09-19T15:18:35;9.18;;;1.98;;
18082;SDS011;9168;51.194;6.840;2023-09-19T15:21:04;5.25;;;1.58;;
18082;SDS011;9168;51.194;6.840;2023-09-19T15:23:33;5.10;;;1.60;;
18082;SDS011;9168;51.194;6.840;2023-09-19T15:26:01;3.58;;;1.30;;
18082;SDS011;9168;51.194;6.840;2023-09-19T15:28:29;7.38;;;1.40;;
18082;SDS011;9168;51.194;6.840;2023-09-19T15:30:57;5.95;;;1.35;;